Monterey Park, California
Current Conditions -  °F | °C
As of 7:47 PM on Wednesday 17 Dec 2014 (Local Time) from KCQT Reporting Station
Clear Clear  
Wind Chill: 56°   Ceiling: Unl
Heat Index: 56°   Visibility: 10mi
Dew Point: 45°   Wind: 0mph
Humidity: 67%   Direction: NA
Pressure: 30.08"   Gusts: NA
Location:  34.06°N, 118.12°W
Report Text: KCQT 180347Z AUTO 00000KT 10SM CLR 13/07 A3008 RMK AO2 SLP186 T01330072
Loading
Personal Weather Stations






























Interactive Weather Map New forecast layout! Learn more

10-Day Weather Forecast

Advertisements
Track Severe Weather on mobile